Catalonia — 9HWS7 — position and weather

sailwx.info

Track history (hours):
 
Tides and Currents Weather Stations Pressure Air Temp Water Temp Dewpoint Dewpoint Depression Visibility Wind Speed Wind Dir Waves Ship Positions

Catalonia

Last reported at 2017-May-27 23:46 UTC. Time now 2017-Jun-26 00:41 UTC.
Position N 30°59' E 032°19'.
Warning: this ship's position is 29 days out of date.

Length 189 m; draft 9.3 m.

Type: Cargo ship. MMSI: 215929000.

Date/timePositionNaut miles runAvg speedWind from/ knotsBaromVisibWave heightAir tempDewpointWater temp
2017-May-27 23:46N 30°59' E 032°19'23 2.4
2017-May-27 14:10N 31°22' E 032°18'0 0.1
2017-May-27 11:43N 31°22' E 032°18'0 0.0
2017-May-27 08:02N 31°22' E 032°18'0 0.0
2017-May-27 07:59N 31°22' E 032°18'0 0.1
2017-May-27 07:17N 31°22' E 032°18'0 1.1
2017-May-27 07:01N 31°23' E 032°18'2 4.5
2017-May-27 06:31N 31°25' E 032°17'4 7.6
2017-May-27 06:01N 31°28' E 032°16'510.2
2017-May-27 05:29N 31°32' E 032°12'510.3
2017-May-27 05:01N 31°36' E 032°08'510.2
2017-May-27 04:31N 31°39' E 032°04'510.3
2017-May-27 03:59N 31°43' E 031°59'511.5
2017-May-27 03:31N 31°47' E 031°55'612.4
2017-May-27 03:00N 31°51' E 031°49'612.6
2017-May-27 02:31N 31°54' E 031°42'712.6
2017-May-27 01:59N 31°56' E 031°35'612.5
2017-May-27 01:30N 31°58' E 031°29'612.5
2017-May-27 01:00N 32°01' E 031°22'612.5
2017-May-27 00:31N 32°03' E 031°15'612.3
2017-May-27 00:01N 32°05' E 031°08'612.3
2017-May-26 23:30N 32°08' E 031°01'612.4
2017-May-26 23:00N 32°10' E 030°55'6112.0
2017-May-26 17:55N 32°33' E 029°47'511.6
2017-May-26 17:29N 32°35' E 029°42'511.5
2017-May-26 17:01N 32°37' E 029°36'1611.5
2017-May-26 15:36N 32°43' E 029°18'111.7
2017-May-26 15:31N 32°43' E 029°17'1111.7
2017-May-26 14:35N 32°47' E 029°05'111.8
2017-May-26 14:31N 32°47' E 029°04'2312.3
2017-May-26 12:37N 32°56' E 028°38'1413.0
2017-May-26 11:34N 33°01' E 028°23'113.3
2017-May-26 11:30N 33°02' E 028°22'  
2017-May-24 05:36N 40°43' E 018°36'512.3
2017-May-24 05:09N 40°46' E 018°31'27012.7
2017-May-23 07:59N 43°56' E 014°12'613.4
2017-May-23 07:30N 44°01' E 014°06'713.4
2017-May-23 07:00N 44°07' E 014°01'713.4
2017-May-23 06:30N 44°12' E 013°56'713.3
2017-May-23 06:00N 44°18' E 013°51'713.4
2017-May-23 05:30N 44°23' E 013°46'713.2
2017-May-23 05:00N 44°29' E 013°40'713.1
2017-May-23 04:30N 44°34' E 013°35'613.0
2017-May-23 04:00N 44°40' E 013°30'612.8
2017-May-23 03:30N 44°45' E 013°25'612.6
2017-May-23 03:00N 44°50' E 013°20'612.6
2017-May-23 02:30N 44°55' E 013°15'612.7
2017-May-23 02:00N 45°01' E 013°10'612.8
2017-May-23 01:30N 45°06' E 013°05'612.5
2017-May-23 01:00N 45°12' E 013°02'713.0
2017-May-23 00:30N 45°18' E 012°60'613.0
2017-May-23 00:00N 45°24' E 012°59'612.5
2017-May-22 23:30N 45°28' E 013°06'713.2
2017-May-22 23:00N 45°32' E 013°14'613.1
2017-May-22 22:30N 45°35' E 013°22'713.1
2017-May-22 22:00N 45°37' E 013°31'611.2
2017-May-22 21:30N 45°36' E 013°39'4 8.6
2017-May-22 21:00N 45°33' E 013°43'1 1.4
2017-May-22 20:30N 45°34' E 013°44'0 0.1
2017-May-22 20:00N 45°34' E 013°44'0 0.0
2017-May-22 19:30N 45°34' E 013°44'0 0.0
2017-May-22 19:00N 45°34' E 013°44'0 0.0
2017-May-22 18:24N 45°34' E 013°44'0 0.0
2017-May-22 17:59N 45°34' E 013°44'0 0.0
2017-May-22 17:30N 45°34' E 013°44'0 0.0
2017-May-22 16:59N 45°34' E 013°44'0 0.0
2017-May-22 16:30N 45°34' E 013°44'0 0.0
2017-May-22 16:00N 45°34' E 013°44'0 0.0
2017-May-22 15:30N 45°34' E 013°44'0 0.0
2017-May-22 14:59N 45°34' E 013°44'0 0.0
2017-May-22 13:57N 45°34' E 013°44'0 0.0
2017-May-22 13:30N 45°34' E 013°44'0 0.0
2017-May-22 13:00N 45°34' E 013°44'0 0.0
2017-May-22 12:00N 45°34' E 013°44'0 0.0
2017-May-22 11:27N 45°34' E 013°44'0 0.0
2017-May-22 10:57N 45°34' E 013°44'0 0.0
2017-May-22 10:29N 45°34' E 013°44'0 0.0
2017-May-22 09:59N 45°34' E 013°44'0 0.0
2017-May-22 09:29N 45°34' E 013°44'0 0.0
2017-May-22 09:00N 45°34' E 013°44'0 0.0
2017-May-22 08:21N 45°34' E 013°44'0 0.0
2017-May-22 07:57N 45°34' E 013°44'0 0.0
2017-May-22 07:27N 45°34' E 013°44'0 0.0
2017-May-22 06:57N 45°34' E 013°44'0 0.0
2017-May-22 06:30N 45°34' E 013°44'0 0.0
2017-May-22 05:57N 45°34' E 013°44'0 0.0
2017-May-22 05:30N 45°34' E 013°44'0 0.0
2017-May-22 04:57N 45°34' E 013°44'0 0.0
2017-May-22 04:21N 45°34' E 013°44'0 0.0
2017-May-22 04:00N 45°34' E 013°44'0 0.0
2017-May-22 03:27N 45°34' E 013°44'0 0.0
2017-May-22 03:00N 45°34' E 013°44'0 0.0
2017-May-22 02:27N 45°34' E 013°44'0 0.0
2017-May-22 02:00N 45°34' E 013°44'0 0.0
2017-May-22 01:27N 45°34' E 013°44'0 0.0
2017-May-22 00:54N 45°34' E 013°44'0 0.0
2017-May-22 00:30N 45°34' E 013°44'0 0.0
2017-May-22 00:00N 45°34' E 013°44'0 0.0
2017-May-21 23:27N 45°34' E 013°44'0 0.0
2017-May-21 23:00N 45°34' E 013°44'0 0.0
2017-May-21 22:30N 45°34' E 013°44'0 0.0
2017-May-21 22:00N 45°34' E 013°44'0 0.0
2017-May-21 21:30N 45°34' E 013°44'0 0.0
2017-May-21 21:00N 45°34' E 013°44'0 0.0
2017-May-21 20:30N 45°34' E 013°44'0 0.0
2017-May-21 19:51N 45°34' E 013°44'0 0.0
2017-May-21 19:30N 45°34' E 013°44'0 0.0
2017-May-21 19:00N 45°34' E 013°44'0 0.0
2017-May-21 18:30N 45°34' E 013°44'0 0.0
2017-May-21 18:00N 45°34' E 013°44'0 0.0
2017-May-21 17:30N 45°34' E 013°44'0 0.0
2017-May-21 17:00N 45°34' E 013°44'0 0.0
2017-May-21 16:30N 45°34' E 013°44'0 0.0
2017-May-21 16:00N 45°34' E 013°44'0 0.0
2017-May-21 15:30N 45°34' E 013°44'0 0.0
2017-May-21 15:00N 45°34' E 013°44'0 0.0
2017-May-21 14:00N 45°34' E 013°44'0 0.0
2017-May-21 13:30N 45°34' E 013°44'0 0.0
2017-May-21 13:00N 45°34' E 013°44'0 0.0
2017-May-21 12:30N 45°34' E 013°44'0 0.0
2017-May-21 12:00N 45°34' E 013°44'0 0.0
2017-May-21 11:30N 45°34' E 013°44'0 0.0
2017-May-21 10:54N 45°34' E 013°44'0 0.0
2017-May-21 10:30N 45°34' E 013°44'0 0.0
2017-May-21 10:00N 45°34' E 013°44'0 0.0
2017-May-21 09:18N 45°34' E 013°44'0 0.0
2017-May-21 08:57N 45°34' E 013°44'0 0.0
2017-May-21 08:30N 45°34' E 013°44'0 0.0
2017-May-21 08:00N 45°34' E 013°44'0 0.0
2017-May-21 07:30N 45°34' E 013°44'0 0.0
2017-May-21 07:00N 45°34' E 013°44'0 0.0
2017-May-21 06:30N 45°34' E 013°44'0 0.0
2017-May-21 05:57N 45°34' E 013°44'0 0.0
2017-May-21 05:27N 45°34' E 013°44'0 0.0
2017-May-21 04:57N 45°34' E 013°44'0 0.0
2017-May-21 04:27N 45°34' E 013°44'0 0.0
2017-May-21 03:57N 45°34' E 013°44'0 0.0
2017-May-21 03:30N 45°34' E 013°44'0 0.0
2017-May-21 03:00N 45°34' E 013°44'0 0.0
2017-May-21 02:30N 45°34' E 013°44'0 0.0
2017-May-21 02:00N 45°34' E 013°44'0 0.0
2017-May-21 01:30N 45°34' E 013°44'0 0.0
2017-May-21 00:57N 45°34' E 013°44'0 0.0
2017-May-21 00:27N 45°34' E 013°44'0 0.0
2017-May-21 00:00N 45°34' E 013°44'0 0.0
2017-May-20 23:30N 45°34' E 013°44'0 0.0
2017-May-20 23:00N 45°34' E 013°44'0 0.0
2017-May-20 22:30N 45°34' E 013°44'0 0.0
2017-May-20 21:57N 45°34' E 013°44'0 0.0
2017-May-20 21:30N 45°34' E 013°44'0 0.0
2017-May-20 20:33N 45°34' E 013°44'0 0.0
2017-May-20 20:27N 45°34' E 013°44'0 0.0
2017-May-20 20:00N 45°34' E 013°44'0 0.0
2017-May-20 19:27N 45°34' E 013°44'0 0.0
2017-May-20 18:57N 45°34' E 013°44'0 0.0
2017-May-20 18:30N 45°34' E 013°44'0 0.0
2017-May-20 17:57N 45°34' E 013°44'0 0.0
2017-May-20 17:30N 45°34' E 013°44'0 0.0
2017-May-20 17:00N 45°34' E 013°44'0 0.0
2017-May-20 16:30N 45°34' E 013°44'0 0.0
2017-May-20 15:57N 45°34' E 013°44'0 0.0
2017-May-20 15:30N 45°34' E 013°44'0 0.0
2017-May-20 15:00N 45°34' E 013°44'0 0.0
2017-May-20 14:27N 45°34' E 013°44'0 0.0
2017-May-20 13:28N 45°34' E 013°44'0 0.0
2017-May-20 12:58N 45°34' E 013°44'0 0.0
2017-May-20 12:28N 45°34' E 013°44'0 0.0
2017-May-20 11:58N 45°34' E 013°44'0 0.0
2017-May-20 11:25N 45°34' E 013°44'0 0.0
2017-May-20 10:58N 45°34' E 013°44'0 0.0
2017-May-20 10:28N 45°34' E 013°44'0 0.0
2017-May-20 09:58N 45°34' E 013°44'0 0.0
2017-May-20 09:25N 45°34' E 013°44'0 0.0
2017-May-20 08:58N 45°34' E 013°44'0 0.0
2017-May-20 08:28N 45°34' E 013°44'0 0.0
2017-May-20 07:58N 45°34' E 013°44'0 0.0
2017-May-20 07:28N 45°34' E 013°44'0 0.0
2017-May-20 06:58N 45°34' E 013°44'0 0.0
2017-May-20 06:28N 45°34' E 013°44'0 0.0
2017-May-20 05:58N 45°34' E 013°44'0 0.0
2017-May-20 05:25N 45°34' E 013°44'0 0.0
2017-May-20 04:58N 45°34' E 013°44'0 0.0
2017-May-20 04:28N 45°34' E 013°44'0 0.0
2017-May-20 03:58N 45°34' E 013°44'0 0.0
2017-May-20 03:25N 45°34' E 013°44'0 0.0
2017-May-20 02:55N 45°34' E 013°44'0 0.0
2017-May-20 02:28N 45°34' E 013°44'0 0.0
2017-May-20 01:55N 45°34' E 013°44'0 0.0
2017-May-20 01:28N 45°34' E 013°44'0 0.0
2017-May-20 00:55N 45°34' E 013°44'0 0.0
2017-May-20 00:28N 45°34' E 013°44'0 0.0
2017-May-19 23:58N 45°34' E 013°44'0 0.0
2017-May-19 23:22N 45°34' E 013°44'0 0.0
2017-May-19 22:55N 45°34' E 013°44'0 0.0
2017-May-19 22:22N 45°34' E 013°44'0 0.0
2017-May-19 21:58N 45°34' E 013°44'0 0.0
2017-May-19 21:28N 45°34' E 013°44'0 0.0
2017-May-19 20:46N 45°34' E 013°44'0 0.0
2017-May-19 20:28N 45°34' E 013°44'0 0.0
2017-May-19 19:58N 45°34' E 013°44'0 0.0
2017-May-19 19:28N 45°34' E 013°44'0 0.0
2017-May-19 18:58N 45°34' E 013°44'0 0.4
2017-May-19 18:30N 45°33' E 013°44'2 4.1
2017-May-19 18:01N 45°34' E 013°41'2 4.4
2017-May-19 17:31N 45°34' E 013°38'1 2.6
2017-May-19 17:01N 45°34' E 013°36'2 3.4
2017-May-19 16:31N 45°35' E 013°34'3 6.2
2017-May-19 16:00N 45°37' E 013°37'3 6.5
2017-May-19 15:31N 45°39' E 013°41'4 7.2
2017-May-19 15:01N 45°38' E 013°46'0 0.5
2017-May-19 14:00N 45°38' E 013°47'0 0.0
2017-May-19 13:30N 45°38' E 013°47'0 0.0
2017-May-19 13:00N 45°38' E 013°47'0 0.0
2017-May-19 12:27N 45°38' E 013°47'0 0.0
2017-May-19 11:57N 45°38' E 013°47'0 0.0
2017-May-19 11:30N 45°38' E 013°47'0 0.0
2017-May-19 11:00N 45°38' E 013°47'0 0.0
2017-May-19 10:21N 45°38' E 013°47'0 0.0
2017-May-19 10:00N 45°38' E 013°47'0 0.0
2017-May-19 09:30N 45°38' E 013°47'0 0.0
2017-May-19 09:00N 45°38' E 013°47'0 0.0
2017-May-19 08:30N 45°38' E 013°47'0 0.0
2017-May-19 07:57N 45°38' E 013°47'0 0.0
2017-May-19 07:30N 45°38' E 013°47'0 0.0
2017-May-19 07:00N 45°38' E 013°47'0 0.0
2017-May-19 06:18N 45°38' E 013°47'0 0.0
2017-May-19 06:00N 45°38' E 013°47'0 0.0
2017-May-19 05:30N 45°38' E 013°47'0 0.0
2017-May-19 05:00N 45°38' E 013°47'0 0.0
2017-May-19 04:21N 45°38' E 013°47'0 0.0
2017-May-19 04:00N 45°38' E 013°47'0 0.0
2017-May-19 03:24N 45°38' E 013°47'0 0.0
2017-May-19 03:00N 45°38' E 013°47'0 0.0
2017-May-19 02:27N 45°38' E 013°47'0 0.0
2017-May-19 02:00N 45°38' E 013°47'0 0.0
2017-May-19 01:30N 45°38' E 013°47'0 0.0
2017-May-19 01:00N 45°38' E 013°47'0 0.0
2017-May-19 00:30N 45°38' E 013°47'0 0.0
2017-May-19 00:00N 45°38' E 013°47'0 0.0
2017-May-18 23:30N 45°38' E 013°47'0 0.0
2017-May-18 23:00N 45°38' E 013°47'0 0.0
2017-May-18 22:29N 45°38' E 013°47'0 0.0
2017-May-18 21:58N 45°38' E 013°47'0 0.0
2017-May-18 21:22N 45°38' E 013°47'0 0.0
2017-May-18 20:52N 45°38' E 013°47'0 0.0
2017-May-18 20:28N 45°38' E 013°47'0 0.0
2017-May-18 19:58N 45°38' E 013°47'0 0.0
2017-May-18 19:31N 45°38' E 013°47'0 0.1
2017-May-18 19:01N 45°38' E 013°47'1 2.6
2017-May-18 18:30N 45°38' E 013°45'3 5.9
2017-May-18 18:01N 45°39' E 013°41'3 5.3
2017-May-18 17:31N 45°38' E 013°38'4 8.8
2017-May-18 17:00N 45°35' E 013°33'5 9.6
2017-May-18 16:30N 45°33' E 013°27'613.0
2017-May-18 16:01N 45°30' E 013°19'713.6
2017-May-18 15:30N 45°27' E 013°10'713.9
2017-May-18 15:00N 45°24' E 013°01'1413.7
2017-May-18 14:00N 45°18' E 012°43'713.8
2017-May-18 13:30N 45°15' E 012°34'612.5
2017-May-18 13:00N 45°17' E 012°26'510.4
2017-May-18 12:30N 45°20' E 012°19'3 7.0
2017-May-18 12:00N 45°22' E 012°15'4 8.0
2017-May-18 11:30N 45°26' E 012°16'1 2.8
2017-May-18 10:58N 45°28' E 012°15'0 0.2
2017-May-18 10:28N 45°28' E 012°15'0 0.0
2017-May-18 09:52N 45°28' E 012°15'0 0.0
2017-May-18 09:28N 45°28' E 012°15'0 0.0
2017-May-18 08:58N 45°28' E 012°15'0 0.0
2017-May-18 08:28N 45°28' E 012°15'0 0.0
2017-May-18 07:58N 45°28' E 012°15'0 0.0
2017-May-18 07:28N 45°28' E 012°15'0 0.0
2017-May-18 06:58N 45°28' E 012°15'0 0.0
2017-May-18 06:28N 45°28' E 012°15'0 0.0
2017-May-18 05:55N 45°28' E 012°15'0 0.0
2017-May-18 05:28N 45°28' E 012°15'0 0.0
2017-May-18 04:58N 45°28' E 012°15'0 0.0
2017-May-18 04:28N 45°28' E 012°15'0 0.0
2017-May-18 03:58N 45°28' E 012°15'0 0.0
2017-May-18 03:28N 45°28' E 012°15'0 0.0
2017-May-18 02:58N 45°28' E 012°15'0 0.0
2017-May-18 02:28N 45°28' E 012°15'0 0.0
2017-May-18 01:58N 45°28' E 012°15'0 0.0
2017-May-18 01:28N 45°28' E 012°15'0 0.0
2017-May-18 00:58N 45°28' E 012°15'0 0.0
2017-May-18 00:28N 45°28' E 012°15'0 0.0
2017-May-17 23:58N 45°28' E 012°15'  
Track history (hours):
 
Tides and Currents Weather Stations Pressure Air Temp Water Temp Dewpoint Dewpoint Depression Visibility Wind Speed Wind Dir Waves Ship Positions

Catalonia

Last reported at 2017-May-27 23:46 UTC. Time now 2017-Jun-26 00:41 UTC.
Position N 30°59' E 032°19'.
Warning: this ship's position is 29 days out of date.

Length 189 m; draft 9.3 m.

Type: Cargo ship. MMSI: 215929000.

Date/timePositionNaut miles runAvg speedWind from/ knotsBaromVisibWave heightAir tempDewpointWater temp
2017-May-27 23:46N 30°59' E 032°19'23 2.4
2017-May-27 14:10N 31°22' E 032°18'0 0.1
2017-May-27 11:43N 31°22' E 032°18'0 0.0
2017-May-27 08:02N 31°22' E 032°18'0 0.0
2017-May-27 07:59N 31°22' E 032°18'0 0.1
2017-May-27 07:17N 31°22' E 032°18'0 1.1
2017-May-27 07:01N 31°23' E 032°18'2 4.5
2017-May-27 06:31N 31°25' E 032°17'4 7.6
2017-May-27 06:01N 31°28' E 032°16'510.2
2017-May-27 05:29N 31°32' E 032°12'510.3
2017-May-27 05:01N 31°36' E 032°08'510.2
2017-May-27 04:31N 31°39' E 032°04'510.3
2017-May-27 03:59N 31°43' E 031°59'511.5
2017-May-27 03:31N 31°47' E 031°55'612.4
2017-May-27 03:00N 31°51' E 031°49'612.6
2017-May-27 02:31N 31°54' E 031°42'712.6
2017-May-27 01:59N 31°56' E 031°35'612.5
2017-May-27 01:30N 31°58' E 031°29'612.5
2017-May-27 01:00N 32°01' E 031°22'612.5
2017-May-27 00:31N 32°03' E 031°15'612.3
2017-May-27 00:01N 32°05' E 031°08'612.3
2017-May-26 23:30N 32°08' E 031°01'612.4
2017-May-26 23:00N 32°10' E 030°55'6112.0
2017-May-26 17:55N 32°33' E 029°47'511.6
2017-May-26 17:29N 32°35' E 029°42'511.5
2017-May-26 17:01N 32°37' E 029°36'1611.5
2017-May-26 15:36N 32°43' E 029°18'111.7
2017-May-26 15:31N 32°43' E 029°17'1111.7
2017-May-26 14:35N 32°47' E 029°05'111.8
2017-May-26 14:31N 32°47' E 029°04'2312.3
2017-May-26 12:37N 32°56' E 028°38'1413.0
2017-May-26 11:34N 33°01' E 028°23'113.3
2017-May-26 11:30N 33°02' E 028°22'  
2017-May-24 05:36N 40°43' E 018°36'512.3
2017-May-24 05:09N 40°46' E 018°31'27012.7
2017-May-23 07:59N 43°56' E 014°12'613.4
2017-May-23 07:30N 44°01' E 014°06'713.4
2017-May-23 07:00N 44°07' E 014°01'713.4
2017-May-23 06:30N 44°12' E 013°56'713.3
2017-May-23 06:00N 44°18' E 013°51'713.4
2017-May-23 05:30N 44°23' E 013°46'713.2
2017-May-23 05:00N 44°29' E 013°40'713.1
2017-May-23 04:30N 44°34' E 013°35'613.0
2017-May-23 04:00N 44°40' E 013°30'612.8
2017-May-23 03:30N 44°45' E 013°25'612.6
2017-May-23 03:00N 44°50' E 013°20'612.6
2017-May-23 02:30N 44°55' E 013°15'612.7
2017-May-23 02:00N 45°01' E 013°10'612.8
2017-May-23 01:30N 45°06' E 013°05'612.5
2017-May-23 01:00N 45°12' E 013°02'713.0
2017-May-23 00:30N 45°18' E 012°60'613.0
2017-May-23 00:00N 45°24' E 012°59'612.5
2017-May-22 23:30N 45°28' E 013°06'713.2
2017-May-22 23:00N 45°32' E 013°14'613.1
2017-May-22 22:30N 45°35' E 013°22'713.1
2017-May-22 22:00N 45°37' E 013°31'611.2
2017-May-22 21:30N 45°36' E 013°39'4 8.6
2017-May-22 21:00N 45°33' E 013°43'1 1.4
2017-May-22 20:30N 45°34' E 013°44'0 0.1
2017-May-22 20:00N 45°34' E 013°44'0 0.0
2017-May-22 19:30N 45°34' E 013°44'0 0.0
2017-May-22 19:00N 45°34' E 013°44'0 0.0
2017-May-22 18:24N 45°34' E 013°44'0 0.0
2017-May-22 17:59N 45°34' E 013°44'0 0.0
2017-May-22 17:30N 45°34' E 013°44'0 0.0
2017-May-22 16:59N 45°34' E 013°44'0 0.0
2017-May-22 16:30N 45°34' E 013°44'0 0.0
2017-May-22 16:00N 45°34' E 013°44'0 0.0
2017-May-22 15:30N 45°34' E 013°44'0 0.0
2017-May-22 14:59N 45°34' E 013°44'0 0.0
2017-May-22 13:57N 45°34' E 013°44'0 0.0
2017-May-22 13:30N 45°34' E 013°44'0 0.0
2017-May-22 13:00N 45°34' E 013°44'0 0.0
2017-May-22 12:00N 45°34' E 013°44'0 0.0
2017-May-22 11:27N 45°34' E 013°44'0 0.0
2017-May-22 10:57N 45°34' E 013°44'0 0.0
2017-May-22 10:29N 45°34' E 013°44'0 0.0
2017-May-22 09:59N 45°34' E 013°44'0 0.0
2017-May-22 09:29N 45°34' E 013°44'0 0.0
2017-May-22 09:00N 45°34' E 013°44'0 0.0
2017-May-22 08:21N 45°34' E 013°44'0 0.0
2017-May-22 07:57N 45°34' E 013°44'0 0.0
2017-May-22 07:27N 45°34' E 013°44'0 0.0
2017-May-22 06:57N 45°34' E 013°44'0 0.0
2017-May-22 06:30N 45°34' E 013°44'0 0.0
2017-May-22 05:57N 45°34' E 013°44'0 0.0
2017-May-22 05:30N 45°34' E 013°44'0 0.0
2017-May-22 04:57N 45°34' E 013°44'0 0.0
2017-May-22 04:21N 45°34' E 013°44'0 0.0
2017-May-22 04:00N 45°34' E 013°44'0 0.0
2017-May-22 03:27N 45°34' E 013°44'0 0.0
2017-May-22 03:00N 45°34' E 013°44'0 0.0
2017-May-22 02:27N 45°34' E 013°44'0 0.0
2017-May-22 02:00N 45°34' E 013°44'0 0.0
2017-May-22 01:27N 45°34' E 013°44'0 0.0
2017-May-22 00:54N 45°34' E 013°44'0 0.0
2017-May-22 00:30N 45°34' E 013°44'0 0.0
2017-May-22 00:00N 45°34' E 013°44'0 0.0
2017-May-21 23:27N 45°34' E 013°44'0 0.0
2017-May-21 23:00N 45°34' E 013°44'0 0.0
2017-May-21 22:30N 45°34' E 013°44'0 0.0
2017-May-21 22:00N 45°34' E 013°44'0 0.0
2017-May-21 21:30N 45°34' E 013°44'0 0.0
2017-May-21 21:00N 45°34' E 013°44'0 0.0
2017-May-21 20:30N 45°34' E 013°44'0 0.0
2017-May-21 19:51N 45°34' E 013°44'0 0.0
2017-May-21 19:30N 45°34' E 013°44'0 0.0
2017-May-21 19:00N 45°34' E 013°44'0 0.0
2017-May-21 18:30N 45°34' E 013°44'0 0.0
2017-May-21 18:00N 45°34' E 013°44'0 0.0
2017-May-21 17:30N 45°34' E 013°44'0 0.0
2017-May-21 17:00N 45°34' E 013°44'0 0.0
2017-May-21 16:30N 45°34' E 013°44'0 0.0
2017-May-21 16:00N 45°34' E 013°44'0 0.0
2017-May-21 15:30N 45°34' E 013°44'0 0.0
2017-May-21 15:00N 45°34' E 013°44'0 0.0
2017-May-21 14:00N 45°34' E 013°44'0 0.0
2017-May-21 13:30N 45°34' E 013°44'0 0.0
2017-May-21 13:00N 45°34' E 013°44'0 0.0
2017-May-21 12:30N 45°34' E 013°44'0 0.0
2017-May-21 12:00N 45°34' E 013°44'0 0.0
2017-May-21 11:30N 45°34' E 013°44'0 0.0
2017-May-21 10:54N 45°34' E 013°44'0 0.0
2017-May-21 10:30N 45°34' E 013°44'0 0.0
2017-May-21 10:00N 45°34' E 013°44'0 0.0
2017-May-21 09:18N 45°34' E 013°44'0 0.0
2017-May-21 08:57N 45°34' E 013°44'0 0.0
2017-May-21 08:30N 45°34' E 013°44'0 0.0
2017-May-21 08:00N 45°34' E 013°44'0 0.0
2017-May-21 07:30N 45°34' E 013°44'0 0.0
2017-May-21 07:00N 45°34' E 013°44'0 0.0
2017-May-21 06:30N 45°34' E 013°44'0 0.0
2017-May-21 05:57N 45°34' E 013°44'0 0.0
2017-May-21 05:27N 45°34' E 013°44'0 0.0
2017-May-21 04:57N 45°34' E 013°44'0 0.0
2017-May-21 04:27N 45°34' E 013°44'0 0.0
2017-May-21 03:57N 45°34' E 013°44'0 0.0
2017-May-21 03:30N 45°34' E 013°44'0 0.0
2017-May-21 03:00N 45°34' E 013°44'0 0.0
2017-May-21 02:30N 45°34' E 013°44'0 0.0
2017-May-21 02:00N 45°34' E 013°44'0 0.0
2017-May-21 01:30N 45°34' E 013°44'0 0.0
2017-May-21 00:57N 45°34' E 013°44'0 0.0
2017-May-21 00:27N 45°34' E 013°44'0 0.0
2017-May-21 00:00N 45°34' E 013°44'0 0.0
2017-May-20 23:30N 45°34' E 013°44'0 0.0
2017-May-20 23:00N 45°34' E 013°44'0 0.0
2017-May-20 22:30N 45°34' E 013°44'0 0.0
2017-May-20 21:57N 45°34' E 013°44'0 0.0
2017-May-20 21:30N 45°34' E 013°44'0 0.0
2017-May-20 20:33N 45°34' E 013°44'0 0.0
2017-May-20 20:27N 45°34' E 013°44'0 0.0
2017-May-20 20:00N 45°34' E 013°44'0 0.0
2017-May-20 19:27N 45°34' E 013°44'0 0.0
2017-May-20 18:57N 45°34' E 013°44'0 0.0
2017-May-20 18:30N 45°34' E 013°44'0 0.0
2017-May-20 17:57N 45°34' E 013°44'0 0.0
2017-May-20 17:30N 45°34' E 013°44'0 0.0
2017-May-20 17:00N 45°34' E 013°44'0 0.0
2017-May-20 16:30N 45°34' E 013°44'0 0.0
2017-May-20 15:57N 45°34' E 013°44'0 0.0
2017-May-20 15:30N 45°34' E 013°44'0 0.0
2017-May-20 15:00N 45°34' E 013°44'0 0.0
2017-May-20 14:27N 45°34' E 013°44'0 0.0
2017-May-20 13:28N 45°34' E 013°44'0 0.0
2017-May-20 12:58N 45°34' E 013°44'0 0.0
2017-May-20 12:28N 45°34' E 013°44'0 0.0
2017-May-20 11:58N 45°34' E 013°44'0 0.0
2017-May-20 11:25N 45°34' E 013°44'0 0.0
2017-May-20 10:58N 45°34' E 013°44'0 0.0
2017-May-20 10:28N 45°34' E 013°44'0 0.0
2017-May-20 09:58N 45°34' E 013°44'0 0.0
2017-May-20 09:25N 45°34' E 013°44'0 0.0
2017-May-20 08:58N 45°34' E 013°44'0 0.0
2017-May-20 08:28N 45°34' E 013°44'0 0.0
2017-May-20 07:58N 45°34' E 013°44'0 0.0
2017-May-20 07:28N 45°34' E 013°44'0 0.0
2017-May-20 06:58N 45°34' E 013°44'0 0.0
2017-May-20 06:28N 45°34' E 013°44'0 0.0
2017-May-20 05:58N 45°34' E 013°44'0 0.0
2017-May-20 05:25N 45°34' E 013°44'0 0.0
2017-May-20 04:58N 45°34' E 013°44'0 0.0
2017-May-20 04:28N 45°34' E 013°44'0 0.0
2017-May-20 03:58N 45°34' E 013°44'0 0.0
2017-May-20 03:25N 45°34' E 013°44'0 0.0
2017-May-20 02:55N 45°34' E 013°44'0 0.0
2017-May-20 02:28N 45°34' E 013°44'0 0.0
2017-May-20 01:55N 45°34' E 013°44'0 0.0
2017-May-20 01:28N 45°34' E 013°44'0 0.0
2017-May-20 00:55N 45°34' E 013°44'0 0.0
2017-May-20 00:28N 45°34' E 013°44'0 0.0
2017-May-19 23:58N 45°34' E 013°44'0 0.0
2017-May-19 23:22N 45°34' E 013°44'0 0.0
2017-May-19 22:55N 45°34' E 013°44'0 0.0
2017-May-19 22:22N 45°34' E 013°44'0 0.0
2017-May-19 21:58N 45°34' E 013°44'0 0.0
2017-May-19 21:28N 45°34' E 013°44'0 0.0
2017-May-19 20:46N 45°34' E 013°44'0 0.0
2017-May-19 20:28N 45°34' E 013°44'0 0.0
2017-May-19 19:58N 45°34' E 013°44'0 0.0
2017-May-19 19:28N 45°34' E 013°44'0 0.0
2017-May-19 18:58N 45°34' E 013°44'0 0.4
2017-May-19 18:30N 45°33' E 013°44'2 4.1
2017-May-19 18:01N 45°34' E 013°41'2 4.4
2017-May-19 17:31N 45°34' E 013°38'1 2.6
2017-May-19 17:01N 45°34' E 013°36'2 3.4
2017-May-19 16:31N 45°35' E 013°34'3 6.2
2017-May-19 16:00N 45°37' E 013°37'3 6.5
2017-May-19 15:31N 45°39' E 013°41'4 7.2
2017-May-19 15:01N 45°38' E 013°46'0 0.5
2017-May-19 14:00N 45°38' E 013°47'0 0.0
2017-May-19 13:30N 45°38' E 013°47'0 0.0
2017-May-19 13:00N 45°38' E 013°47'0 0.0
2017-May-19 12:27N 45°38' E 013°47'0 0.0
2017-May-19 11:57N 45°38' E 013°47'0 0.0
2017-May-19 11:30N 45°38' E 013°47'0 0.0
2017-May-19 11:00N 45°38' E 013°47'0 0.0
2017-May-19 10:21N 45°38' E 013°47'0 0.0
2017-May-19 10:00N 45°38' E 013°47'0 0.0
2017-May-19 09:30N 45°38' E 013°47'0 0.0
2017-May-19 09:00N 45°38' E 013°47'0 0.0
2017-May-19 08:30N 45°38' E 013°47'0 0.0
2017-May-19 07:57N 45°38' E 013°47'0 0.0
2017-May-19 07:30N 45°38' E 013°47'0 0.0
2017-May-19 07:00N 45°38' E 013°47'0 0.0
2017-May-19 06:18N 45°38' E 013°47'0 0.0
2017-May-19 06:00N 45°38' E 013°47'0 0.0
2017-May-19 05:30N 45°38' E 013°47'0 0.0
2017-May-19 05:00N 45°38' E 013°47'0 0.0
2017-May-19 04:21N 45°38' E 013°47'0 0.0
2017-May-19 04:00N 45°38' E 013°47'0 0.0
2017-May-19 03:24N 45°38' E 013°47'0 0.0
2017-May-19 03:00N 45°38' E 013°47'0 0.0
2017-May-19 02:27N 45°38' E 013°47'0 0.0
2017-May-19 02:00N 45°38' E 013°47'0 0.0
2017-May-19 01:30N 45°38' E 013°47'0 0.0
2017-May-19 01:00N 45°38' E 013°47'0 0.0
2017-May-19 00:30N 45°38' E 013°47'0 0.0
2017-May-19 00:00N 45°38' E 013°47'0 0.0
2017-May-18 23:30N 45°38' E 013°47'0 0.0
2017-May-18 23:00N 45°38' E 013°47'0 0.0
2017-May-18 22:29N 45°38' E 013°47'0 0.0
2017-May-18 21:58N 45°38' E 013°47'0 0.0
2017-May-18 21:22N 45°38' E 013°47'0 0.0
2017-May-18 20:52N 45°38' E 013°47'0 0.0
2017-May-18 20:28N 45°38' E 013°47'0 0.0
2017-May-18 19:58N 45°38' E 013°47'0 0.0
2017-May-18 19:31N 45°38' E 013°47'0 0.1
2017-May-18 19:01N 45°38' E 013°47'1 2.6
2017-May-18 18:30N 45°38' E 013°45'3 5.9
2017-May-18 18:01N 45°39' E 013°41'3 5.3
2017-May-18 17:31N 45°38' E 013°38'4 8.8
2017-May-18 17:00N 45°35' E 013°33'5 9.6
2017-May-18 16:30N 45°33' E 013°27'613.0
2017-May-18 16:01N 45°30' E 013°19'713.6
2017-May-18 15:30N 45°27' E 013°10'713.9
2017-May-18 15:00N 45°24' E 013°01'1413.7
2017-May-18 14:00N 45°18' E 012°43'713.8
2017-May-18 13:30N 45°15' E 012°34'612.5
2017-May-18 13:00N 45°17' E 012°26'510.4
2017-May-18 12:30N 45°20' E 012°19'3 7.0
2017-May-18 12:00N 45°22' E 012°15'4 8.0
2017-May-18 11:30N 45°26' E 012°16'1 2.8
2017-May-18 10:58N 45°28' E 012°15'0 0.2
2017-May-18 10:28N 45°28' E 012°15'0 0.0
2017-May-18 09:52N 45°28' E 012°15'0 0.0
2017-May-18 09:28N 45°28' E 012°15'0 0.0
2017-May-18 08:58N 45°28' E 012°15'0 0.0
2017-May-18 08:28N 45°28' E 012°15'0 0.0
2017-May-18 07:58N 45°28' E 012°15'0 0.0
2017-May-18 07:28N 45°28' E 012°15'0 0.0
2017-May-18 06:58N 45°28' E 012°15'0 0.0
2017-May-18 06:28N 45°28' E 012°15'0 0.0
2017-May-18 05:55N 45°28' E 012°15'0 0.0
2017-May-18 05:28N 45°28' E 012°15'0 0.0
2017-May-18 04:58N 45°28' E 012°15'0 0.0
2017-May-18 04:28N 45°28' E 012°15'0 0.0
2017-May-18 03:58N 45°28' E 012°15'0 0.0
2017-May-18 03:28N 45°28' E 012°15'0 0.0
2017-May-18 02:58N 45°28' E 012°15'0 0.0
2017-May-18 02:28N 45°28' E 012°15'0 0.0
2017-May-18 01:58N 45°28' E 012°15'0 0.0
2017-May-18 01:28N 45°28' E 012°15'0 0.0
2017-May-18 00:58N 45°28' E 012°15'0 0.0
2017-May-18 00:28N 45°28' E 012°15'0 0.0
2017-May-17 23:58N 45°28' E 012°15'  

Dump ship's entire track history